sensor_id;sensor_type;location;lat;lon;timestamp;temperature;humidity
71754;DHT22;59593;51.716;7.016;2023-12-22T00:01:06;6.60;99.90
71754;DHT22;59593;51.716;7.016;2023-12-22T00:03:32;6.60;99.90
71754;DHT22;59593;51.716;7.016;2023-12-22T00:05:57;6.60;99.90
71754;DHT22;59593;51.716;7.016;2023-12-22T00:08:23;6.60;99.90
71754;DHT22;59593;51.716;7.016;2023-12-22T00:10:51;6.50;99.90
71754;DHT22;59593;51.716;7.016;2023-12-22T00:13:17;6.40;99.90
71754;DHT22;59593;51.716;7.016;2023-12-22T00:15:43;6.40;99.90
71754;DHT22;59593;51.716;7.016;2023-12-22T00:18:08;6.40;99.90
71754;DHT22;59593;51.716;7.016;2023-12-22T00:20:35;6.40;99.90
71754;DHT22;59593;51.716;7.016;2023-12-22T00:23:00;6.40;99.90
71754;DHT22;59593;51.716;7.016;2023-12-22T00:25:26;6.40;99.90
71754;DHT22;59593;51.716;7.016;2023-12-22T00:27:51;6.40;99.90
71754;DHT22;59593;51.716;7.016;2023-12-22T00:30:17;6.40;99.90
71754;DHT22;59593;51.716;7.016;2023-12-22T00:32:43;6.40;99.90
71754;DHT22;59593;51.716;7.016;2023-12-22T00:35:08;6.40;99.90
71754;DHT22;59593;51.716;7.016;2023-12-22T00:37:34;6.30;99.90
71754;DHT22;59593;51.716;7.016;2023-12-22T00:40:00;6.30;99.90
71754;DHT22;59593;51.716;7.016;2023-12-22T00:42:26;6.30;99.90
71754;DHT22;59593;51.716;7.016;2023-12-22T00:44:51;6.30;99.90
71754;DHT22;59593;51.716;7.016;2023-12-22T00:47:17;6.30;99.90
71754;DHT22;59593;51.716;7.016;2023-12-22T00:49:43;6.30;99.90
71754;DHT22;59593;51.716;7.016;2023-12-22T00:52:08;6.30;99.90
71754;DHT22;59593;51.716;7.016;2023-12-22T00:54:34;6.30;99.90
71754;DHT22;59593;51.716;7.016;2023-12-22T00:56:59;6.40;99.90
71754;DHT22;59593;51.716;7.016;2023-12-22T00:59:25;6.30;99.90
71754;DHT22;59593;51.716;7.016;2023-12-22T01:01:51;6.40;99.90
71754;DHT22;59593;51.716;7.016;2023-12-22T01:04:16;6.30;99.90
71754;DHT22;59593;51.716;7.016;2023-12-22T01:06:42;6.40;99.90
71754;DHT22;59593;51.716;7.016;2023-12-22T01:09:07;6.40;99.90
71754;DHT22;59593;51.716;7.016;2023-12-22T01:11:33;6.40;99.90
71754;DHT22;59593;51.716;7.016;2023-12-22T01:13:59;6.30;99.90
71754;DHT22;59593;51.716;7.016;2023-12-22T01:16:24;6.30;99.90
71754;DHT22;59593;51.716;7.016;2023-12-22T01:18:50;6.30;99.90
71754;DHT22;59593;51.716;7.016;2023-12-22T01:21:16;6.30;99.90
71754;DHT22;59593;51.716;7.016;2023-12-22T01:23:42;6.30;99.90
71754;DHT22;59593;51.716;7.016;2023-12-22T01:26:07;6.30;99.90
71754;DHT22;59593;51.716;7.016;2023-12-22T01:28:34;6.30;99.90
71754;DHT22;59593;51.716;7.016;2023-12-22T01:31:00;6.40;99.90
71754;DHT22;59593;51.716;7.016;2023-12-22T01:33:26;6.40;99.90
71754;DHT22;59593;51.716;7.016;2023-12-22T01:35:51;6.40;99.90
71754;DHT22;59593;51.716;7.016;2023-12-22T01:38:17;6.50;99.90
71754;DHT22;59593;51.716;7.016;2023-12-22T01:40:43;6.50;99.90
71754;DHT22;59593;51.716;7.016;2023-12-22T01:43:08;6.50;99.90
71754;DHT22;59593;51.716;7.016;2023-12-22T01:45:36;6.50;99.90
71754;DHT22;59593;51.716;7.016;2023-12-22T01:48:02;6.50;99.90
71754;DHT22;59593;51.716;7.016;2023-12-22T01:50:28;6.50;99.90
71754;DHT22;59593;51.716;7.016;2023-12-22T01:52:54;6.60;99.90
71754;DHT22;59593;51.716;7.016;2023-12-22T01:55:20;6.60;99.90
71754;DHT22;59593;51.716;7.016;2023-12-22T01:57:46;6.60;99.90
71754;DHT22;59593;51.716;7.016;2023-12-22T02:00:13;6.60;99.90
71754;DHT22;59593;51.716;7.016;2023-12-22T02:02:40;6.60;99.90
71754;DHT22;59593;51.716;7.016;2023-12-22T02:05:08;6.60;99.90
71754;DHT22;59593;51.716;7.016;2023-12-22T02:07:40;6.50;99.90
71754;DHT22;59593;51.716;7.016;2023-12-22T02:10:09;6.50;99.90
71754;DHT22;59593;51.716;7.016;2023-12-22T02:12:36;6.50;99.90
71754;DHT22;59593;51.716;7.016;2023-12-22T02:15:02;6.40;99.90
71754;DHT22;59593;51.716;7.016;2023-12-22T02:17:52;6.40;99.90
71754;DHT22;59593;51.716;7.016;2023-12-22T02:20:21;6.40;99.90
71754;DHT22;59593;51.716;7.016;2023-12-22T02:22:51;6.40;99.90
71754;DHT22;59593;51.716;7.016;2023-12-22T02:25:18;6.40;99.90
71754;DHT22;59593;51.716;7.016;2023-12-22T02:27:57;6.40;99.90
71754;DHT22;59593;51.716;7.016;2023-12-22T02:30:38;6.40;99.90
71754;DHT22;59593;51.716;7.016;2023-12-22T02:33:05;6.50;99.90
71754;DHT22;59593;51.716;7.016;2023-12-22T02:35:33;6.40;99.90
71754;DHT22;59593;51.716;7.016;2023-12-22T02:38:01;6.50;99.90
71754;DHT22;59593;51.716;7.016;2023-12-22T02:40:28;6.40;99.90
71754;DHT22;59593;51.716;7.016;2023-12-22T02:42:55;6.50;99.90
71754;DHT22;59593;51.716;7.016;2023-12-22T02:45:20;6.40;99.90
71754;DHT22;59593;51.716;7.016;2023-12-22T02:47:47;6.40;99.90
71754;DHT22;59593;51.716;7.016;2023-12-22T02:50:14;6.40;99.90
71754;DHT22;59593;51.716;7.016;2023-12-22T02:52:40;6.40;99.90
71754;DHT22;59593;51.716;7.016;2023-12-22T02:55:06;6.30;99.90
71754;DHT22;59593;51.716;7.016;2023-12-22T02:57:32;6.30;99.90
71754;DHT22;59593;51.716;7.016;2023-12-22T02:59:58;6.30;99.90
71754;DHT22;59593;51.716;7.016;2023-12-22T03:02:24;6.30;99.90
71754;DHT22;59593;51.716;7.016;2023-12-22T03:04:50;6.40;99.90
71754;DHT22;59593;51.716;7.016;2023-12-22T03:07:16;6.30;99.90
71754;DHT22;59593;51.716;7.016;2023-12-22T03:09:42;6.30;99.90
71754;DHT22;59593;51.716;7.016;2023-12-22T03:12:08;6.30;99.90
71754;DHT22;59593;51.716;7.016;2023-12-22T03:14:35;6.30;99.90
71754;DHT22;59593;51.716;7.016;2023-12-22T03:17:02;6.30;99.90
71754;DHT22;59593;51.716;7.016;2023-12-22T03:19:28;6.20;99.90
71754;DHT22;59593;51.716;7.016;2023-12-22T03:21:55;6.30;99.90
71754;DHT22;59593;51.716;7.016;2023-12-22T03:24:25;6.30;99.90
71754;DHT22;59593;51.716;7.016;2023-12-22T03:26:52;6.20;99.90
71754;DHT22;59593;51.716;7.016;2023-12-22T03:29:18;6.20;99.90
71754;DHT22;59593;51.716;7.016;2023-12-22T03:31:44;6.10;99.90
71754;DHT22;59593;51.716;7.016;2023-12-22T03:34:10;6.00;99.90
71754;DHT22;59593;51.716;7.016;2023-12-22T03:36:36;6.00;99.90
71754;DHT22;59593;51.716;7.016;2023-12-22T03:39:02;5.90;99.90
71754;DHT22;59593;51.716;7.016;2023-12-22T03:41:28;5.90;99.90
71754;DHT22;59593;51.716;7.016;2023-12-22T03:43:55;5.90;99.90
71754;DHT22;59593;51.716;7.016;2023-12-22T03:46:20;6.00;99.90
71754;DHT22;59593;51.716;7.016;2023-12-22T03:48:46;5.90;99.90
71754;DHT22;59593;51.716;7.016;2023-12-22T03:51:12;5.80;99.90
71754;DHT22;59593;51.716;7.016;2023-12-22T03:53:38;5.80;99.90
71754;DHT22;59593;51.716;7.016;2023-12-22T03:56:04;5.60;99.90
71754;DHT22;59593;51.716;7.016;2023-12-22T03:58:32;5.70;99.90
71754;DHT22;59593;51.716;7.016;2023-12-22T04:00:57;5.60;99.90
71754;DHT22;59593;51.716;7.016;2023-12-22T04:03:23;5.70;99.90
71754;DHT22;59593;51.716;7.016;2023-12-22T04:05:48;5.70;99.90
71754;DHT22;59593;51.716;7.016;2023-12-22T04:08:14;5.60;99.90
71754;DHT22;59593;51.716;7.016;2023-12-22T04:10:41;5.70;99.90
71754;DHT22;59593;51.716;7.016;2023-12-22T04:13:06;5.70;99.90
71754;DHT22;59593;51.716;7.016;2023-12-22T04:15:32;5.70;99.90
71754;DHT22;59593;51.716;7.016;2023-12-22T04:17:57;5.80;99.90
71754;DHT22;59593;51.716;7.016;2023-12-22T04:20:23;5.70;99.90
71754;DHT22;59593;51.716;7.016;2023-12-22T04:22:49;5.70;99.90
71754;DHT22;59593;51.716;7.016;2023-12-22T04:25:15;5.70;99.90
71754;DHT22;59593;51.716;7.016;2023-12-22T04:27:41;5.70;99.90
71754;DHT22;59593;51.716;7.016;2023-12-22T04:30:08;5.70;99.90
71754;DHT22;59593;51.716;7.016;2023-12-22T04:32:33;5.70;99.90
71754;DHT22;59593;51.716;7.016;2023-12-22T04:34:59;5.70;99.90
71754;DHT22;59593;51.716;7.016;2023-12-22T04:37:25;5.70;99.90
71754;DHT22;59593;51.716;7.016;2023-12-22T04:39:51;5.70;99.90
71754;DHT22;59593;51.716;7.016;2023-12-22T04:42:16;5.70;99.90
71754;DHT22;59593;51.716;7.016;2023-12-22T04:44:42;5.70;99.90
71754;DHT22;59593;51.716;7.016;2023-12-22T04:47:07;5.70;99.90
71754;DHT22;59593;51.716;7.016;2023-12-22T04:49:33;5.70;99.90
71754;DHT22;59593;51.716;7.016;2023-12-22T04:51:59;5.70;99.90
71754;DHT22;59593;51.716;7.016;2023-12-22T04:54:24;5.70;99.90
71754;DHT22;59593;51.716;7.016;2023-12-22T04:56:50;5.60;99.90
71754;DHT22;59593;51.716;7.016;2023-12-22T04:59:15;5.70;99.90
71754;DHT22;59593;51.716;7.016;2023-12-22T05:01:41;5.70;99.90
71754;DHT22;59593;51.716;7.016;2023-12-22T05:04:08;5.70;99.90
71754;DHT22;59593;51.716;7.016;2023-12-22T05:06:35;5.70;99.90
71754;DHT22;59593;51.716;7.016;2023-12-22T05:09:00;5.70;99.90
71754;DHT22;59593;51.716;7.016;2023-12-22T05:11:26;5.70;99.90
71754;DHT22;59593;51.716;7.016;2023-12-22T05:13:51;5.70;99.90
71754;DHT22;59593;51.716;7.016;2023-12-22T05:16:17;5.80;99.90
71754;DHT22;59593;51.716;7.016;2023-12-22T05:18:42;5.90;99.90
71754;DHT22;59593;51.716;7.016;2023-12-22T05:21:12;5.90;99.90
71754;DHT22;59593;51.716;7.016;2023-12-22T05:23:38;5.90;99.90
71754;DHT22;59593;51.716;7.016;2023-12-22T05:26:03;5.90;99.90
71754;DHT22;59593;51.716;7.016;2023-12-22T05:28:29;6.00;99.90
71754;DHT22;59593;51.716;7.016;2023-12-22T05:30:54;6.00;99.90
71754;DHT22;59593;51.716;7.016;2023-12-22T05:33:20;6.00;99.90
71754;DHT22;59593;51.716;7.016;2023-12-22T05:35:46;6.00;99.90
71754;DHT22;59593;51.716;7.016;2023-12-22T05:38:11;6.10;99.90
71754;DHT22;59593;51.716;7.016;2023-12-22T05:40:37;6.10;99.90
71754;DHT22;59593;51.716;7.016;2023-12-22T05:43:03;6.20;99.90
71754;DHT22;59593;51.716;7.016;2023-12-22T05:45:28;6.10;99.90
71754;DHT22;59593;51.716;7.016;2023-12-22T05:47:54;6.20;99.90
71754;DHT22;59593;51.716;7.016;2023-12-22T05:50:19;6.20;99.90
71754;DHT22;59593;51.716;7.016;2023-12-22T05:52:48;6.20;99.90
71754;DHT22;59593;51.716;7.016;2023-12-22T05:55:14;6.30;99.90
71754;DHT22;59593;51.716;7.016;2023-12-22T05:57:40;6.30;99.90
71754;DHT22;59593;51.716;7.016;2023-12-22T06:00:06;6.30;99.90
71754;DHT22;59593;51.716;7.016;2023-12-22T06:02:33;6.30;99.90
71754;DHT22;59593;51.716;7.016;2023-12-22T06:04:59;6.40;99.90
71754;DHT22;59593;51.716;7.016;2023-12-22T06:07:25;6.40;99.90
71754;DHT22;59593;51.716;7.016;2023-12-22T06:09:51;6.30;99.90
71754;DHT22;59593;51.716;7.016;2023-12-22T06:12:17;6.50;99.90
71754;DHT22;59593;51.716;7.016;2023-12-22T06:14:42;6.50;99.90
71754;DHT22;59593;51.716;7.016;2023-12-22T06:17:08;6.50;99.90
71754;DHT22;59593;51.716;7.016;2023-12-22T06:19:35;6.60;99.90
71754;DHT22;59593;51.716;7.016;2023-12-22T06:22:01;6.50;99.90
71754;DHT22;59593;51.716;7.016;2023-12-22T06:24:27;6.60;99.90
71754;DHT22;59593;51.716;7.016;2023-12-22T06:26:53;6.50;99.90
71754;DHT22;59593;51.716;7.016;2023-12-22T06:29:18;6.50;99.90
71754;DHT22;59593;51.716;7.016;2023-12-22T06:31:44;6.40;99.90
71754;DHT22;59593;51.716;7.016;2023-12-22T06:34:10;6.50;99.90
71754;DHT22;59593;51.716;7.016;2023-12-22T06:36:35;6.50;99.90
71754;DHT22;59593;51.716;7.016;2023-12-22T06:39:01;6.50;99.90
71754;DHT22;59593;51.716;7.016;2023-12-22T06:41:28;6.60;99.90
71754;DHT22;59593;51.716;7.016;2023-12-22T06:43:55;6.60;99.90
71754;DHT22;59593;51.716;7.016;2023-12-22T06:46:23;6.60;99.90
71754;DHT22;59593;51.716;7.016;2023-12-22T06:48:51;6.60;99.90
71754;DHT22;59593;51.716;7.016;2023-12-22T06:51:21;6.60;99.90
71754;DHT22;59593;51.716;7.016;2023-12-22T06:53:48;6.50;99.90
71754;DHT22;59593;51.716;7.016;2023-12-22T06:56:35;6.50;99.90
71754;DHT22;59593;51.716;7.016;2023-12-22T06:59:01;6.50;99.90
71754;DHT22;59593;51.716;7.016;2023-12-22T07:01:37;6.40;99.90
71754;DHT22;59593;51.716;7.016;2023-12-22T07:04:03;6.40;99.90
71754;DHT22;59593;51.716;7.016;2023-12-22T07:06:31;6.50;99.90
71754;DHT22;59593;51.716;7.016;2023-12-22T07:11:41;6.50;99.90
71754;DHT22;59593;51.716;7.016;2023-12-22T07:14:07;6.50;99.90
71754;DHT22;59593;51.716;7.016;2023-12-22T07:16:33;6.40;99.90
71754;DHT22;59593;51.716;7.016;2023-12-22T07:18:59;6.40;99.90
71754;DHT22;59593;51.716;7.016;2023-12-22T07:21:25;6.50;99.90
71754;DHT22;59593;51.716;7.016;2023-12-22T07:23:51;6.50;99.90
71754;DHT22;59593;51.716;7.016;2023-12-22T07:26:17;6.50;99.90
71754;DHT22;59593;51.716;7.016;2023-12-22T07:28:42;6.50;99.90
71754;DHT22;59593;51.716;7.016;2023-12-22T07:31:08;6.50;99.90
71754;DHT22;59593;51.716;7.016;2023-12-22T07:33:33;6.40;99.90
71754;DHT22;59593;51.716;7.016;2023-12-22T07:35:59;6.40;99.90
71754;DHT22;59593;51.716;7.016;2023-12-22T07:38:24;6.40;99.90
71754;DHT22;59593;51.716;7.016;2023-12-22T07:40:50;6.40;99.90
71754;DHT22;59593;51.716;7.016;2023-12-22T07:43:16;6.40;99.90
71754;DHT22;59593;51.716;7.016;2023-12-22T07:45:41;6.40;99.90
71754;DHT22;59593;51.716;7.016;2023-12-22T07:48:07;6.50;99.90
71754;DHT22;59593;51.716;7.016;2023-12-22T07:50:33;6.50;99.90
71754;DHT22;59593;51.716;7.016;2023-12-22T07:52:59;6.50;99.90
71754;DHT22;59593;51.716;7.016;2023-12-22T07:55:25;6.50;99.90
71754;DHT22;59593;51.716;7.016;2023-12-22T07:57:51;6.60;99.90
71754;DHT22;59593;51.716;7.016;2023-12-22T08:00:17;6.60;99.90
71754;DHT22;59593;51.716;7.016;2023-12-22T08:02:43;6.60;99.90
71754;DHT22;59593;51.716;7.016;2023-12-22T08:05:09;6.60;99.90
71754;DHT22;59593;51.716;7.016;2023-12-22T08:07:35;6.70;99.90
71754;DHT22;59593;51.716;7.016;2023-12-22T08:10:01;6.60;99.90
71754;DHT22;59593;51.716;7.016;2023-12-22T08:12:27;6.40;99.90
71754;DHT22;59593;51.716;7.016;2023-12-22T08:14:53;6.40;99.90
71754;DHT22;59593;51.716;7.016;2023-12-22T08:17:19;6.50;99.90
71754;DHT22;59593;51.716;7.016;2023-12-22T08:19:45;6.60;99.90
71754;DHT22;59593;51.716;7.016;2023-12-22T08:22:10;6.90;99.90
71754;DHT22;59593;51.716;7.016;2023-12-22T08:24:38;7.00;99.90
71754;DHT22;59593;51.716;7.016;2023-12-22T08:27:06;7.00;99.90
71754;DHT22;59593;51.716;7.016;2023-12-22T08:29:32;7.10;99.90
71754;DHT22;59593;51.716;7.016;2023-12-22T08:31:58;7.20;99.90
71754;DHT22;59593;51.716;7.016;2023-12-22T08:34:23;7.30;99.90
71754;DHT22;59593;51.716;7.016;2023-12-22T08:36:49;7.40;99.90
71754;DHT22;59593;51.716;7.016;2023-12-22T08:39:15;7.40;99.90
71754;DHT22;59593;51.716;7.016;2023-12-22T08:41:41;7.50;99.90
71754;DHT22;59593;51.716;7.016;2023-12-22T08:44:07;7.50;99.90
71754;DHT22;59593;51.716;7.016;2023-12-22T08:46:33;7.60;99.90
71754;DHT22;59593;51.716;7.016;2023-12-22T08:48:59;7.70;99.90
71754;DHT22;59593;51.716;7.016;2023-12-22T08:51:26;7.70;99.90
71754;DHT22;59593;51.716;7.016;2023-12-22T08:53:52;7.60;99.90
71754;DHT22;59593;51.716;7.016;2023-12-22T08:56:23;7.70;99.90
71754;DHT22;59593;51.716;7.016;2023-12-22T08:58:50;7.80;99.90
71754;DHT22;59593;51.716;7.016;2023-12-22T09:01:18;7.80;99.90
71754;DHT22;59593;51.716;7.016;2023-12-22T09:03:44;7.80;99.90
71754;DHT22;59593;51.716;7.016;2023-12-22T09:06:14;7.80;99.90
71754;DHT22;59593;51.716;7.016;2023-12-22T09:08:41;7.90;99.90
71754;DHT22;59593;51.716;7.016;2023-12-22T09:11:08;7.90;99.90
71754;DHT22;59593;51.716;7.016;2023-12-22T09:13:33;7.90;99.90
71754;DHT22;59593;51.716;7.016;2023-12-22T09:16:01;8.00;99.90
71754;DHT22;59593;51.716;7.016;2023-12-22T09:18:27;8.00;99.90
71754;DHT22;59593;51.716;7.016;2023-12-22T09:20:53;8.10;99.90
71754;DHT22;59593;51.716;7.016;2023-12-22T09:23:19;8.10;99.90
71754;DHT22;59593;51.716;7.016;2023-12-22T09:25:45;8.00;99.90
71754;DHT22;59593;51.716;7.016;2023-12-22T09:28:11;7.90;99.90
71754;DHT22;59593;51.716;7.016;2023-12-22T09:30:36;7.80;99.90
71754;DHT22;59593;51.716;7.016;2023-12-22T09:33:02;7.80;99.90
71754;DHT22;59593;51.716;7.016;2023-12-22T09:35:27;7.70;99.90
71754;DHT22;59593;51.716;7.016;2023-12-22T09:37:53;7.70;99.90
71754;DHT22;59593;51.716;7.016;2023-12-22T09:40:19;7.70;99.90
71754;DHT22;59593;51.716;7.016;2023-12-22T09:42:46;7.70;99.90
71754;DHT22;59593;51.716;7.016;2023-12-22T09:45:12;7.70;99.90
71754;DHT22;59593;51.716;7.016;2023-12-22T09:47:42;7.70;99.90
71754;DHT22;59593;51.716;7.016;2023-12-22T09:50:09;7.70;99.90
71754;DHT22;59593;51.716;7.016;2023-12-22T09:52:35;7.70;99.90
71754;DHT22;59593;51.716;7.016;2023-12-22T09:55:04;7.70;99.90
71754;DHT22;59593;51.716;7.016;2023-12-22T09:57:30;7.70;99.90
71754;DHT22;59593;51.716;7.016;2023-12-22T09:59:58;7.70;99.90
71754;DHT22;59593;51.716;7.016;2023-12-22T10:02:25;7.70;99.90
71754;DHT22;59593;51.716;7.016;2023-12-22T10:04:53;7.70;99.90
71754;DHT22;59593;51.716;7.016;2023-12-22T10:07:19;7.70;99.90
71754;DHT22;59593;51.716;7.016;2023-12-22T10:09:46;7.60;99.90
71754;DHT22;59593;51.716;7.016;2023-12-22T10:12:13;7.60;99.90
71754;DHT22;59593;51.716;7.016;2023-12-22T10:14:40;7.70;99.90
71754;DHT22;59593;51.716;7.016;2023-12-22T10:17:06;7.70;99.90
71754;DHT22;59593;51.716;7.016;2023-12-22T10:19:32;7.70;99.90
71754;DHT22;59593;51.716;7.016;2023-12-22T10:21:58;7.70;99.90
71754;DHT22;59593;51.716;7.016;2023-12-22T10:24:46;7.60;99.90
71754;DHT22;59593;51.716;7.016;2023-12-22T10:27:17;7.60;99.90
71754;DHT22;59593;51.716;7.016;2023-12-22T10:29:55;7.60;99.90
71754;DHT22;59593;51.716;7.016;2023-12-22T10:32:21;7.50;99.90
71754;DHT22;59593;51.716;7.016;2023-12-22T10:34:48;7.60;99.90
71754;DHT22;59593;51.716;7.016;2023-12-22T10:37:14;7.60;99.90
71754;DHT22;59593;51.716;7.016;2023-12-22T10:39:40;7.60;99.90
71754;DHT22;59593;51.716;7.016;2023-12-22T10:42:06;7.80;99.90
71754;DHT22;59593;51.716;7.016;2023-12-22T10:44:32;7.80;99.90
71754;DHT22;59593;51.716;7.016;2023-12-22T10:46:58;7.70;99.90
71754;DHT22;59593;51.716;7.016;2023-12-22T10:49:24;7.80;99.90
71754;DHT22;59593;51.716;7.016;2023-12-22T10:51:51;7.70;99.90
71754;DHT22;59593;51.716;7.016;2023-12-22T10:54:17;7.80;99.90
71754;DHT22;59593;51.716;7.016;2023-12-22T10:56:43;7.90;99.90
71754;DHT22;59593;51.716;7.016;2023-12-22T10:59:09;7.90;99.90
71754;DHT22;59593;51.716;7.016;2023-12-22T11:01:38;8.00;99.90
71754;DHT22;59593;51.716;7.016;2023-12-22T11:04:13;7.90;99.90
71754;DHT22;59593;51.716;7.016;2023-12-22T11:06:43;7.90;99.90
71754;DHT22;59593;51.716;7.016;2023-12-22T11:09:10;8.00;99.90
71754;DHT22;59593;51.716;7.016;2023-12-22T11:11:37;8.00;99.90
71754;DHT22;59593;51.716;7.016;2023-12-22T11:14:04;8.00;99.90
71754;DHT22;59593;51.716;7.016;2023-12-22T11:16:37;8.00;99.90
71754;DHT22;59593;51.716;7.016;2023-12-22T11:19:03;8.00;99.90
71754;DHT22;59593;51.716;7.016;2023-12-22T11:21:30;7.90;99.90
71754;DHT22;59593;51.716;7.016;2023-12-22T11:23:56;7.90;99.90
71754;DHT22;59593;51.716;7.016;2023-12-22T11:26:25;7.80;99.90
71754;DHT22;59593;51.716;7.016;2023-12-22T11:28:52;7.90;99.90
71754;DHT22;59593;51.716;7.016;2023-12-22T11:31:18;7.90;99.90
71754;DHT22;59593;51.716;7.016;2023-12-22T11:33:49;7.90;99.90
71754;DHT22;59593;51.716;7.016;2023-12-22T11:36:16;7.90;99.90
71754;DHT22;59593;51.716;7.016;2023-12-22T11:38:44;7.80;99.90
71754;DHT22;59593;51.716;7.016;2023-12-22T11:41:21;7.80;99.90
71754;DHT22;59593;51.716;7.016;2023-12-22T11:43:49;7.90;99.90
71754;DHT22;59593;51.716;7.016;2023-12-22T11:46:16;7.90;99.90
71754;DHT22;59593;51.716;7.016;2023-12-22T11:48:50;8.00;99.90
71754;DHT22;59593;51.716;7.016;2023-12-22T11:51:17;8.00;99.90
71754;DHT22;59593;51.716;7.016;2023-12-22T11:53:43;8.10;99.90
71754;DHT22;59593;51.716;7.016;2023-12-22T11:56:11;8.20;99.90
71754;DHT22;59593;51.716;7.016;2023-12-22T11:58:40;8.20;99.90
71754;DHT22;59593;51.716;7.016;2023-12-22T12:01:07;8.30;99.90
71754;DHT22;59593;51.716;7.016;2023-12-22T12:03:47;8.20;99.90
71754;DHT22;59593;51.716;7.016;2023-12-22T12:08:39;8.20;99.90
71754;DHT22;59593;51.716;7.016;2023-12-22T12:11:06;8.10;99.90
71754;DHT22;59593;51.716;7.016;2023-12-22T12:13:33;8.10;99.90
71754;DHT22;59593;51.716;7.016;2023-12-22T12:16:00;8.00;99.90
71754;DHT22;59593;51.716;7.016;2023-12-22T12:18:35;7.90;99.90
71754;DHT22;59593;51.716;7.016;2023-12-22T12:21:01;7.80;99.90
71754;DHT22;59593;51.716;7.016;2023-12-22T12:23:30;7.70;99.90
71754;DHT22;59593;51.716;7.016;2023-12-22T12:25:57;7.60;99.90
71754;DHT22;59593;51.716;7.016;2023-12-22T12:28:31;7.50;99.90
71754;DHT22;59593;51.716;7.016;2023-12-22T12:31:03;7.70;99.90
71754;DHT22;59593;51.716;7.016;2023-12-22T12:33:30;7.70;99.90
71754;DHT22;59593;51.716;7.016;2023-12-22T12:35:57;7.70;99.90
71754;DHT22;59593;51.716;7.016;2023-12-22T12:41:00;7.70;99.90
71754;DHT22;59593;51.716;7.016;2023-12-22T12:43:29;7.70;99.90
71754;DHT22;59593;51.716;7.016;2023-12-22T12:45:54;7.70;99.90
71754;DHT22;59593;51.716;7.016;2023-12-22T12:48:21;7.90;99.90
71754;DHT22;59593;51.716;7.016;2023-12-22T12:50:47;7.90;99.90
71754;DHT22;59593;51.716;7.016;2023-12-22T12:53:13;8.00;99.90
71754;DHT22;59593;51.716;7.016;2023-12-22T12:55:39;8.00;99.90
71754;DHT22;59593;51.716;7.016;2023-12-22T12:58:04;8.10;99.90
71754;DHT22;59593;51.716;7.016;2023-12-22T13:00:32;8.20;99.90
71754;DHT22;59593;51.716;7.016;2023-12-22T13:03:03;8.20;99.90
71754;DHT22;59593;51.716;7.016;2023-12-22T13:05:30;8.30;99.90
71754;DHT22;59593;51.716;7.016;2023-12-22T13:08:09;8.30;99.90
71754;DHT22;59593;51.716;7.016;2023-12-22T13:10:35;8.30;99.90
71754;DHT22;59593;51.716;7.016;2023-12-22T13:13:01;8.30;99.90
71754;DHT22;59593;51.716;7.016;2023-12-22T13:15:27;8.60;99.90
71754;DHT22;59593;51.716;7.016;2023-12-22T13:17:52;8.60;99.90
71754;DHT22;59593;51.716;7.016;2023-12-22T13:20:19;8.70;99.90
71754;DHT22;59593;51.716;7.016;2023-12-22T13:22:45;8.60;99.90
71754;DHT22;59593;51.716;7.016;2023-12-22T13:25:10;8.70;99.90
71754;DHT22;59593;51.716;7.016;2023-12-22T13:30:13;8.50;99.90
71754;DHT22;59593;51.716;7.016;2023-12-22T13:32:38;8.50;99.90
71754;DHT22;59593;51.716;7.016;2023-12-22T13:35:04;8.40;99.90
71754;DHT22;59593;51.716;7.016;2023-12-22T13:37:30;8.30;99.90
71754;DHT22;59593;51.716;7.016;2023-12-22T13:39:56;8.30;99.90
71754;DHT22;59593;51.716;7.016;2023-12-22T13:42:23;8.40;99.90
71754;DHT22;59593;51.716;7.016;2023-12-22T13:44:50;8.20;99.90
71754;DHT22;59593;51.716;7.016;2023-12-22T13:47:20;8.10;99.90
71754;DHT22;59593;51.716;7.016;2023-12-22T13:49:46;8.10;99.90
71754;DHT22;59593;51.716;7.016;2023-12-22T13:52:30;8.00;99.90
71754;DHT22;59593;51.716;7.016;2023-12-22T13:55:10;8.00;99.90
71754;DHT22;59593;51.716;7.016;2023-12-22T13:57:36;8.10;99.90
71754;DHT22;59593;51.716;7.016;2023-12-22T14:00:02;8.30;99.90
71754;DHT22;59593;51.716;7.016;2023-12-22T14:02:30;8.20;99.90
71754;DHT22;59593;51.716;7.016;2023-12-22T14:04:56;8.40;99.90
71754;DHT22;59593;51.716;7.016;2023-12-22T14:07:21;8.40;99.90
71754;DHT22;59593;51.716;7.016;2023-12-22T14:09:47;8.60;99.90
71754;DHT22;59593;51.716;7.016;2023-12-22T14:12:12;8.70;99.90
71754;DHT22;59593;51.716;7.016;2023-12-22T14:14:38;8.80;99.90
71754;DHT22;59593;51.716;7.016;2023-12-22T14:17:04;8.90;99.90
71754;DHT22;59593;51.716;7.016;2023-12-22T14:19:29;9.00;99.90
71754;DHT22;59593;51.716;7.016;2023-12-22T14:21:55;9.20;99.90
71754;DHT22;59593;51.716;7.016;2023-12-22T14:24:21;9.20;99.90
71754;DHT22;59593;51.716;7.016;2023-12-22T14:26:53;9.30;99.90
71754;DHT22;59593;51.716;7.016;2023-12-22T14:29:19;9.30;99.90
71754;DHT22;59593;51.716;7.016;2023-12-22T14:31:44;9.30;99.90
71754;DHT22;59593;51.716;7.016;2023-12-22T14:34:12;9.40;99.90
71754;DHT22;59593;51.716;7.016;2023-12-22T14:36:38;9.40;99.90
71754;DHT22;59593;51.716;7.016;2023-12-22T14:39:04;9.30;99.90
71754;DHT22;59593;51.716;7.016;2023-12-22T14:41:30;9.40;99.90
71754;DHT22;59593;51.716;7.016;2023-12-22T14:43:56;9.40;99.90
71754;DHT22;59593;51.716;7.016;2023-12-22T14:46:24;9.40;99.90
71754;DHT22;59593;51.716;7.016;2023-12-22T14:48:50;9.40;99.90
71754;DHT22;59593;51.716;7.016;2023-12-22T14:51:15;9.40;99.90
71754;DHT22;59593;51.716;7.016;2023-12-22T14:53:41;9.40;99.90
71754;DHT22;59593;51.716;7.016;2023-12-22T14:56:06;9.40;99.90
71754;DHT22;59593;51.716;7.016;2023-12-22T14:58:32;9.40;99.90
71754;DHT22;59593;51.716;7.016;2023-12-22T15:00:58;9.40;99.90
71754;DHT22;59593;51.716;7.016;2023-12-22T15:03:23;9.30;99.90
71754;DHT22;59593;51.716;7.016;2023-12-22T15:05:49;9.20;99.90
71754;DHT22;59593;51.716;7.016;2023-12-22T15:08:15;9.10;99.90
71754;DHT22;59593;51.716;7.016;2023-12-22T15:10:40;9.00;99.90
71754;DHT22;59593;51.716;7.016;2023-12-22T15:13:06;8.90;99.90
71754;DHT22;59593;51.716;7.016;2023-12-22T15:15:31;9.00;99.90
71754;DHT22;59593;51.716;7.016;2023-12-22T15:17:57;8.90;99.90
71754;DHT22;59593;51.716;7.016;2023-12-22T15:20:22;9.00;99.90
71754;DHT22;59593;51.716;7.016;2023-12-22T15:22:48;9.00;99.90
71754;DHT22;59593;51.716;7.016;2023-12-22T15:25:14;9.00;99.90
71754;DHT22;59593;51.716;7.016;2023-12-22T15:27:39;9.00;99.90
71754;DHT22;59593;51.716;7.016;2023-12-22T15:30:06;9.00;99.90
71754;DHT22;59593;51.716;7.016;2023-12-22T15:32:31;9.10;99.90
71754;DHT22;59593;51.716;7.016;2023-12-22T15:34:57;9.10;99.90
71754;DHT22;59593;51.716;7.016;2023-12-22T15:37:23;9.10;99.90
71754;DHT22;59593;51.716;7.016;2023-12-22T15:39:48;9.10;99.90
71754;DHT22;59593;51.716;7.016;2023-12-22T15:42:14;9.20;99.90
71754;DHT22;59593;51.716;7.016;2023-12-22T15:44:40;9.10;99.90
71754;DHT22;59593;51.716;7.016;2023-12-22T15:47:07;9.10;99.90
71754;DHT22;59593;51.716;7.016;2023-12-22T15:49:32;9.10;99.90
71754;DHT22;59593;51.716;7.016;2023-12-22T15:51:58;9.00;99.90